Time;durP1;ratioP1;P1;durP2;ratioP2;P2;SDS_P1;SDS_P2;PMS_P1;PMS_P2;Temp;Humidity;BMP_temperature;BMP_pressure;BME280_temperature;BME280_humidity;BME280_pressure;Samples;Min_cycle;Max_cycle;Signal;HPM_P1;HPM_P2
2024/03/18 00:02:15;;;;;;;0.20;0.20;;;;;;;9.14;60.69;101428.03;4919083;29;20115;-82
2024/03/18 00:04:41;;;;;;;0.20;0.20;;;;;;;9.16;60.67;101452.06;4935898;29;20043;-82
2024/03/18 00:07:07;;;;;;;0.20;0.20;;;;;;;9.18;61.10;101446.84;4934001;29;20156;-82
2024/03/18 00:09:32;;;;;;;0.20;0.20;;;;;;;9.17;60.86;101437.44;4918570;29;20486;-82
2024/03/18 00:11:58;;;;;;;0.20;0.20;;;;;;;9.15;60.98;101439.22;4902975;29;20036;-82
2024/03/18 00:14:23;;;;;;;0.20;0.20;;;;;;;9.12;60.65;101436.69;4934249;29;20498;-82
2024/03/18 00:16:49;;;;;;;0.20;0.20;;;;;;;9.04;60.43;101425.75;4902887;29;20035;-82
2024/03/18 00:19:15;;;;;;;0.20;0.20;;;;;;;9.18;60.16;101436.53;4918533;29;20494;-82
2024/03/18 00:21:40;;;;;;;0.20;0.20;;;;;;;9.17;59.87;101440.00;4918330;29;20054;-82
2024/03/18 00:24:06;;;;;;;0.20;0.20;;;;;;;9.20;59.72;101432.16;4918539;29;20034;-83
2024/03/18 00:26:34;;;;;;;0.20;0.20;;;;;;;9.13;59.73;101420.31;4902726;29;20581;-82
2024/03/18 00:29:00;;;;;;;0.20;0.20;;;;;;;9.12;59.68;101424.63;4918097;29;20070;-82
2024/03/18 00:31:25;;;;;;;0.20;0.20;;;;;;;9.09;59.89;101414.41;4902329;29;20110;-83
2024/03/18 00:33:51;;;;;;;0.20;0.20;;;;;;;9.18;59.63;101423.63;4918316;29;20058;-82
2024/03/18 00:36:16;;;;;;;0.20;0.20;;;;;;;9.09;60.00;101413.56;4902307;29;20118;-82
2024/03/18 00:38:42;;;;;;;0.20;0.20;;;;;;;9.14;60.29;101412.56;4918153;29;20078;-82
2024/03/18 00:43:52;;;;;;;0.20;0.20;;;;;;;9.20;60.60;101391.69;4920434;29;20058;-82
2024/03/18 00:46:18;;;;;;;0.20;0.20;;;;;;;9.26;60.81;101401.00;4902490;29;20407;-83
2024/03/18 00:48:44;;;;;;;0.20;0.20;;;;;;;9.22;60.93;101398.53;4933746;29;20039;-82
2024/03/18 00:51:10;;;;;;;0.20;0.20;;;;;;;9.27;60.67;101387.19;4917666;29;20028;-82
2024/03/18 00:53:35;;;;;;;0.22;0.22;;;;;;;9.15;60.96;101378.09;4933772;29;20028;-82
2024/03/18 00:56:06;;;;;;;0.20;0.20;;;;;;;9.19;61.05;101378.84;4917983;29;20528;-84
2024/03/18 00:58:32;;;;;;;0.20;0.20;;;;;;;9.37;61.59;101395.50;4918312;29;20079;-84
2024/03/18 01:00:57;;;;;;;0.20;0.20;;;;;;;9.27;61.17;101396.69;4917484;29;20028;-83
2024/03/18 01:03:23;;;;;;;0.20;0.20;;;;;;;9.08;61.20;101380.91;4917813;29;20035;-84
2024/03/18 01:05:49;;;;;;;0.20;0.20;;;;;;;9.27;61.43;101394.09;4917486;29;20478;-85
2024/03/18 01:08:14;;;;;;;0.20;0.20;;;;;;;9.25;61.29;101389.00;4917745;29;20027;-84
2024/03/18 01:10:40;;;;;;;0.20;0.20;;;;;;;9.31;60.87;101380.19;4901954;29;20496;-84
2024/03/18 01:13:07;;;;;;;0.20;0.20;;;;;;;9.35;60.96;101384.38;4933648;29;20059;-82
2024/03/18 01:15:33;;;;;;;0.20;0.20;;;;;;;9.24;60.90;101382.09;4917740;29;20036;-82
2024/03/18 01:17:58;;;;;;;0.20;0.20;;;;;;;9.30;60.46;101389.66;4917636;29;20028;-83
2024/03/18 01:20:24;;;;;;;0.28;0.28;;;;;;;9.24;60.74;101381.25;4917222;29;20169;-82
2024/03/18 01:22:50;;;;;;;0.20;0.20;;;;;;;9.14;61.12;101370.38;4933420;29;20031;-82
2024/03/18 01:25:17;;;;;;;0.20;0.20;;;;;;;9.18;61.70;101372.00;4901724;29;20031;-82
2024/03/18 01:27:45;;;;;;;0.20;0.20;;;;;;;9.04;61.01;101349.16;4933481;29;20414;-81
2024/03/18 01:30:12;;;;;;;0.20;0.20;;;;;;;9.08;60.88;101360.25;4934359;29;20031;-82
2024/03/18 01:32:38;;;;;;;0.20;0.20;;;;;;;9.17;61.11;101365.97;4933111;29;20027;-82
2024/03/18 01:35:07;;;;;;;0.20;0.20;;;;;;;9.04;61.08;101346.59;4916634;29;20020;-82
2024/03/18 01:37:34;;;;;;;0.20;0.20;;;;;;;9.08;60.67;101355.94;4917326;29;20030;-81
2024/03/18 01:40:00;;;;;;;0.20;0.20;;;;;;;9.18;60.48;101364.25;4901640;29;20038;-82
2024/03/18 01:42:26;;;;;;;0.20;0.20;;;;;;;8.98;61.07;101344.22;4916764;29;20039;-82
2024/03/18 01:44:53;;;;;;;0.20;0.20;;;;;;;9.01;60.80;101333.78;4932627;29;20030;-82
2024/03/18 01:47:20;;;;;;;0.20;0.20;;;;;;;9.09;61.08;101352.47;4916933;29;20502;-83
2024/03/18 01:49:46;;;;;;;0.20;0.20;;;;;;;9.01;61.08;101348.44;4916597;29;20051;-82
2024/03/18 01:52:11;;;;;;;0.20;0.20;;;;;;;9.10;60.98;101345.56;4916837;29;20032;-82
2024/03/18 01:54:37;;;;;;;0.20;0.20;;;;;;;9.04;60.46;101338.84;4933011;29;20024;-82
2024/03/18 01:57:03;;;;;;;0.20;0.20;;;;;;;9.07;60.46;101332.75;4901019;29;20039;-82
2024/03/18 01:59:30;;;;;;;0.20;0.20;;;;;;;9.09;60.23;101330.97;4932303;29;20111;-82
2024/03/18 02:01:56;;;;;;;0.20;0.20;;;;;;;8.95;59.86;101304.72;4901032;29;20059;-82
2024/03/18 02:04:21;;;;;;;0.20;0.20;;;;;;;9.14;59.53;101336.81;4933159;29;20059;-82
2024/03/18 02:06:47;;;;;;;0.20;0.20;;;;;;;9.18;59.27;101330.69;4917074;29;20031;-81
2024/03/18 02:09:15;;;;;;;0.20;0.20;;;;;;;9.08;59.21;101308.63;4916608;29;20078;-82
2024/03/18 02:11:41;;;;;;;0.20;0.20;;;;;;;9.04;59.46;101312.19;4932435;29;20027;-82
2024/03/18 02:14:13;;;;;;;0.20;0.20;;;;;;;9.08;59.85;101318.97;4900869;29;20507;-82
2024/03/18 02:16:39;;;;;;;0.20;0.20;;;;;;;9.06;59.52;101315.59;4900690;29;20030;-82
2024/03/18 02:19:04;;;;;;;0.20;0.20;;;;;;;9.19;59.06;101332.38;4916633;29;20032;-82
2024/03/18 02:21:30;;;;;;;0.20;0.20;;;;;;;9.26;58.98;101333.03;4916903;29;20406;-82
2024/03/18 02:23:55;;;;;;;0.20;0.20;;;;;;;9.05;59.03;101304.44;4932268;29;20111;-82
2024/03/18 02:26:21;;;;;;;0.20;0.20;;;;;;;9.17;59.51;101323.84;4933501;29;20059;-82
2024/03/18 02:28:47;;;;;;;0.20;0.20;;;;;;;9.09;59.77;101315.47;4900809;29;20036;-82
2024/03/18 02:31:14;;;;;;;0.20;0.20;;;;;;;9.07;59.15;101304.38;4916174;29;20103;-84
2024/03/18 02:33:40;;;;;;;0.20;0.20;;;;;;;9.18;59.62;101315.19;4916542;29;20099;-83
2024/03/18 02:36:06;;;;;;;0.20;0.20;;;;;;;9.07;59.79;101310.38;4916512;29;20032;-82
2024/03/18 02:38:32;;;;;;;0.20;0.20;;;;;;;9.17;59.37;101313.50;4916188;29;20174;-82
2024/03/18 02:40:58;;;;;;;0.20;0.20;;;;;;;9.16;59.51;101310.09;4916420;29;20028;-82
2024/03/18 02:43:23;;;;;;;0.20;0.20;;;;;;;9.06;59.65;101295.78;4916449;29;20035;-82
2024/03/18 02:45:49;;;;;;;0.20;0.20;;;;;;;9.13;59.90;101306.75;4931578;29;20119;-82
2024/03/18 02:48:22;;;;;;;0.20;0.20;;;;;;;9.18;59.53;101304.88;4932430;29;20031;-82
2024/03/18 02:50:48;;;;;;;0.20;0.20;;;;;;;9.20;59.49;101318.56;4931772;29;20055;-82
2024/03/18 02:53:13;;;;;;;0.20;0.20;;;;;;;9.18;58.89;101310.03;4931986;29;20067;-82
2024/03/18 02:55:39;;;;;;;0.20;0.20;;;;;;;9.17;59.54;101311.78;4935122;29;20458;-82
2024/03/18 02:58:05;;;;;;;0.20;0.20;;;;;;;9.24;59.14;101320.13;4935806;29;20031;-83
2024/03/18 03:00:30;;;;;;;0.20;0.20;;;;;;;9.33;59.06;101325.00;4904010;29;20498;-82
2024/03/18 03:02:56;;;;;;;0.20;0.20;;;;;;;9.32;58.73;101320.75;4919832;29;20183;-83
2024/03/18 03:05:21;;;;;;;0.20;0.20;;;;;;;9.17;58.38;101313.50;4935525;29;20586;-82
2024/03/18 03:07:47;;;;;;;0.20;0.20;;;;;;;9.10;58.97;101319.75;4935504;29;20102;-82
2024/03/18 03:10:13;;;;;;;0.20;0.20;;;;;;;8.97;59.00;101315.88;4919653;29;20417;-82
2024/03/18 03:12:39;;;;;;;0.20;0.20;;;;;;;8.82;59.36;101302.53;4919910;29;20024;-82
2024/03/18 03:15:06;;;;;;;0.20;0.20;;;;;;;8.93;58.52;101303.94;4919365;29;20063;-82
2024/03/18 03:17:31;;;;;;;0.20;0.20;;;;;;;8.93;58.74;101309.94;4935429;28;20064;-82
2024/03/18 03:19:57;;;;;;;0.20;0.20;;;;;;;8.68;58.79;101278.06;4935534;29;20032;-82
2024/03/18 03:22:22;;;;;;;0.20;0.20;;;;;;;8.84;58.56;101298.16;4919596;29;20032;-83
2024/03/18 03:24:48;;;;;;;0.20;0.20;;;;;;;8.79;58.58;101302.66;4919638;29;20421;-83
2024/03/18 03:27:14;;;;;;;0.20;0.20;;;;;;;8.82;58.27;101304.28;4903721;29;20126;-82
2024/03/18 03:29:40;;;;;;;0.20;0.20;;;;;;;8.89;58.71;101306.63;4919387;29;20028;-82
2024/03/18 03:32:06;;;;;;;0.20;0.20;;;;;;;8.76;58.30;101287.28;4919484;29;20035;-82
2024/03/18 03:34:31;;;;;;;0.20;0.20;;;;;;;8.84;58.16;101307.66;4919460;29;20059;-82
2024/03/18 03:36:57;;;;;;;0.20;0.20;;;;;;;8.95;57.42;101315.06;4935375;29;20392;-82
2024/03/18 03:39:24;;;;;;;0.20;0.20;;;;;;;8.97;57.65;101315.88;4919670;29;20443;-82
2024/03/18 03:41:49;;;;;;;0.20;0.20;;;;;;;8.88;57.69;101304.94;4919437;29;20024;-82
2024/03/18 03:44:15;;;;;;;0.20;0.20;;;;;;;8.84;57.40;101313.66;4918898;29;20111;-82
2024/03/18 03:46:41;;;;;;;0.20;0.20;;;;;;;8.98;57.28;101307.25;4919320;29;20035;-82
2024/03/18 03:49:07;;;;;;;0.20;0.20;;;;;;;9.07;57.05;101312.13;4919047;29;20052;-82
2024/03/18 03:51:33;;;;;;;0.20;0.20;;;;;;;9.09;56.42;101300.00;4934940;29;20036;-83
2024/03/18 03:53:58;;;;;;;0.20;0.20;;;;;;;9.23;55.67;101313.28;4919357;29;20046;-82
2024/03/18 03:56:25;;;;;;;0.20;0.20;;;;;;;9.26;55.74;101313.22;4918839;29;20031;-82
2024/03/18 03:58:51;;;;;;;0.20;0.20;;;;;;;9.34;55.89;101323.28;4918494;29;20038;-81
2024/03/18 04:01:21;;;;;;;0.20;0.20;;;;;;;9.27;55.75;101301.16;4918784;29;20024;-81
2024/03/18 04:03:46;;;;;;;0.20;0.20;;;;;;;9.41;55.05;101317.84;4904021;29;20098;-81
2024/03/18 04:06:12;;;;;;;0.20;0.20;;;;;;;9.46;55.12;101321.16;4918227;29;20032;-82
2024/03/18 04:08:37;;;;;;;0.20;0.20;;;;;;;9.47;55.38;101317.66;4934390;29;20032;-83
2024/03/18 04:11:03;;;;;;;0.20;0.20;;;;;;;9.47;55.05;101317.66;4918489;29;20039;-83
2024/03/18 04:13:28;;;;;;;0.20;0.20;;;;;;;9.41;55.09;101307.53;4918145;29;20039;-83
2024/03/18 04:15:55;;;;;;;0.20;0.20;;;;;;;9.20;55.63;101297.91;4918638;29;20036;-84
2024/03/18 04:18:21;;;;;;;0.20;0.20;;;;;;;9.06;56.37;101284.63;4918610;29;20454;-83
2024/03/18 04:20:48;;;;;;;0.20;0.20;;;;;;;9.07;56.47;101286.31;4934530;29;20032;-83
2024/03/18 04:23:14;;;;;;;0.20;0.20;;;;;;;8.95;56.48;101281.50;4933978;29;20046;-84
2024/03/18 04:25:40;;;;;;;0.20;0.20;;;;;;;8.91;57.64;101271.28;4934362;29;20024;-84
2024/03/18 04:28:09;;;;;;;0.20;0.20;;;;;;;9.17;56.68;101285.13;4933984;29;20111;-83
2024/03/18 04:30:35;;;;;;;0.20;0.20;;;;;;;9.16;56.49;101292.00;4918719;29;20047;-83
2024/03/18 04:33:01;;;;;;;0.20;0.20;;;;;;;9.23;56.73;101300.38;4938956;29;20030;-83
2024/03/18 04:35:26;;;;;;;0.20;0.20;;;;;;;9.20;57.18;101297.91;4969052;28;20038;-84
2024/03/18 04:37:54;;;;;;;0.20;0.20;;;;;;;9.19;57.61;101307.41;4936949;29;20058;-84
2024/03/18 04:40:21;;;;;;;0.20;0.20;;;;;;;9.15;57.95;101299.81;4952920;29;20027;-84
2024/03/18 04:42:46;;;;;;;0.20;0.20;;;;;;;9.16;58.45;101299.75;4936693;28;20031;-84
2024/03/18 04:45:14;;;;;;;0.20;0.20;;;;;;;9.26;58.49;101302.88;4936754;29;20088;-83
2024/03/18 04:47:41;;;;;;;0.20;0.20;;;;;;;9.26;58.61;101305.47;4953166;29;20114;-84
2024/03/18 04:50:08;;;;;;;0.20;0.20;;;;;;;9.35;58.27;101307.75;4936606;29;20051;-84
2024/03/18 04:52:37;;;;;;;0.20;0.20;;;;;;;9.42;58.61;101304.06;4968643;28;20517;-84
2024/03/18 04:55:04;;;;;;;0.20;0.20;;;;;;;9.37;58.41;101308.53;4952586;29;20063;-83
2024/03/18 04:57:29;;;;;;;0.20;0.20;;;;;;;9.39;58.25;101298.16;4952397;29;20134;-84
2024/03/18 04:59:55;;;;;;;0.20;0.20;;;;;;;9.40;58.10;101300.69;4936558;29;20083;-84
2024/03/18 05:02:21;;;;;;;0.20;0.20;;;;;;;9.43;58.14;101310.06;4952238;28;20141;-84
2024/03/18 05:04:48;;;;;;;0.20;0.20;;;;;;;9.47;58.61;101306.50;4952458;29;20413;-84
2024/03/18 05:07:14;;;;;;;0.20;0.20;;;;;;;9.54;58.01;101312.28;4968370;28;20038;-84
2024/03/18 05:09:40;;;;;;;0.20;0.20;;;;;;;9.61;57.93;101308.59;4952161;29;20027;-85
2024/03/18 05:12:05;;;;;;;0.20;0.20;;;;;;;9.77;57.82;101309.78;4951552;29;20027;-83
2024/03/18 05:14:31;;;;;;;0.20;0.20;;;;;;;9.62;57.42;101274.13;4941193;29;20421;-83
2024/03/18 05:16:57;;;;;;;0.20;0.20;;;;;;;9.78;58.72;101293.38;4932857;29;20079;-83
2024/03/18 05:19:23;;;;;;;0.20;0.20;;;;;;;9.90;58.31;101305.00;4932183;29;20414;-82
2024/03/18 05:21:49;;;;;;;0.20;0.20;;;;;;;9.99;57.68;101305.53;4914143;29;20060;-83
2024/03/18 05:24:15;;;;;;;0.20;0.20;;;;;;;10.01;57.87;101306.31;4915852;29;20067;-85
2024/03/18 05:26:40;;;;;;;0.20;0.20;;;;;;;10.11;58.52;101298.22;4917542;28;20089;-87
2024/03/18 05:29:06;;;;;;;0.20;0.20;;;;;;;10.12;57.95;101295.59;4952214;29;20071;-87
2024/03/18 05:31:32;;;;;;;0.20;0.20;;;;;;;10.11;58.68;101283.56;4942032;29;20028;-88
2024/03/18 05:34:01;;;;;;;0.20;0.20;;;;;;;10.22;58.19;101293.53;4940957;28;20195;-88
2024/03/18 05:36:27;;;;;;;0.20;0.20;;;;;;;10.27;58.55;101304.56;4932056;29;20043;-84
2024/03/18 05:38:53;;;;;;;0.20;0.20;;;;;;;10.34;58.56;101308.63;4948229;29;20114;-86
2024/03/18 05:41:19;;;;;;;0.20;0.20;;;;;;;10.48;58.23;101297.75;4946748;29;20114;-80
2024/03/18 05:43:44;;;;;;;0.20;0.20;;;;;;;10.39;57.80;101273.06;4946495;29;20512;-82
2024/03/18 05:46:10;;;;;;;0.20;0.20;;;;;;;10.69;58.09;101306.44;4947776;29;20059;-86
2024/03/18 05:48:35;;;;;;;0.20;0.20;;;;;;;10.75;58.02;101296.69;4901805;29;20201;-85
2024/03/18 05:51:01;;;;;;;0.20;0.20;;;;;;;10.65;57.64;101274.66;4941357;29;20502;-89
2024/03/18 05:53:26;;;;;;;0.20;0.20;;;;;;;10.90;57.21;101303.00;4948063;29;20086;-87
2024/03/18 05:55:52;;;;;;;0.20;0.20;;;;;;;10.95;56.68;101292.50;4955634;28;20027;-85
2024/03/18 05:58:18;;;;;;;0.20;0.20;;;;;;;11.15;57.20;101305.47;4933037;29;20550;-91
2024/03/18 06:00:44;;;;;;;0.20;0.20;;;;;;;11.21;56.50;101302.66;4916976;29;20023;-89
2024/03/18 06:03:09;;;;;;;0.20;0.20;;;;;;;11.24;56.81;101293.91;4922720;29;20042;-87
2024/03/18 06:05:35;;;;;;;0.20;0.20;;;;;;;11.37;56.59;101295.06;4927719;29;20039;-87
2024/03/18 06:08:00;;;;;;;0.20;0.20;;;;;;;11.34;55.76;101274.47;4933207;29;20038;-88
2024/03/18 06:10:26;;;;;;;0.20;0.20;;;;;;;11.58;55.08;101291.56;4966259;28;20808;-89
2024/03/18 06:12:51;;;;;;;0.20;0.20;;;;;;;11.45;54.30;101280.91;4937949;28;20040;-86
2024/03/18 06:15:17;;;;;;;0.20;0.20;;;;;;;11.67;54.63;101293.78;4938911;29;20035;-85
2024/03/18 06:17:43;;;;;;;0.20;0.20;;;;;;;11.79;54.35;101297.59;4936961;29;20123;-93
2024/03/18 06:20:11;;;;;;;0.20;0.20;;;;;;;11.87;53.16;101292.09;4931914;29;20028;-84
2024/03/18 06:22:37;;;;;;;0.20;0.20;;;;;;;12.00;53.47;101293.28;4950999;28;20035;-92
2024/03/18 06:27:50;;;;;;;0.20;0.20;;;;;;;12.09;52.29;101273.84;4938783;28;20043;-88
2024/03/18 06:30:16;;;;;;;0.20;0.20;;;;;;;12.05;52.35;101280.94;4927621;29;20131;-92
2024/03/18 06:32:42;;;;;;;0.20;0.20;;;;;;;12.30;52.06;101283.28;4950690;28;20040;-87
2024/03/18 06:35:08;;;;;;;0.20;0.20;;;;;;;12.29;50.97;101292.81;4932342;29;20071;-85
2024/03/18 06:37:35;;;;;;;0.20;0.20;;;;;;;12.26;51.49;101299.88;4931917;29;20119;-83
2024/03/18 06:40:04;;;;;;;0.20;0.20;;;;;;;12.18;50.23;101289.84;4947358;29;20067;-84
2024/03/18 06:42:30;;;;;;;0.20;0.20;;;;;;;12.22;50.32;101304.38;4947663;28;20118;-85
2024/03/18 06:44:55;;;;;;;0.20;0.20;;;;;;;12.30;50.42;101278.94;4932009;29;20160;-90
2024/03/18 06:47:21;;;;;;;0.20;0.20;;;;;;;12.30;49.89;101288.47;4943158;29;20039;-90
2024/03/18 06:49:47;;;;;;;0.20;0.20;;;;;;;12.44;49.66;101295.59;4933667;29;20054;-93
2024/03/18 06:52:12;;;;;;;0.20;0.20;;;;;;;12.49;49.81;101293.66;4926982;29;20126;-90
2024/03/18 06:54:38;;;;;;;0.20;0.20;;;;;;;12.60;48.84;101294.00;4956065;28;20043;-92
2024/03/18 06:57:04;;;;;;;0.20;0.20;;;;;;;12.60;49.51;101275.81;4956669;28;20047;-81
2024/03/18 06:59:29;;;;;;;0.30;0.30;;;;;;;12.62;48.77;101277.44;4933052;29;20039;-89
2024/03/18 07:01:55;;;;;;;0.20;0.20;;;;;;;12.79;48.81;101297.41;4936755;29;20118;-90
2024/03/18 07:04:24;;;;;;;0.20;0.20;;;;;;;12.89;48.37;101301.25;4931223;29;20139;-89
2024/03/18 07:06:50;;;;;;;0.20;0.20;;;;;;;13.00;49.28;101292.09;4931337;29;20027;-91
2024/03/18 07:09:15;;;;;;;0.20;0.20;;;;;;;13.04;47.71;101291.03;4935037;29;20122;-93
2024/03/18 07:11:41;;;;;;;0.20;0.20;;;;;;;12.98;48.05;101288.72;4933025;29;20158;-91
2024/03/18 07:14:07;;;;;;;0.20;0.20;;;;;;;13.05;48.58;101277.13;4916090;29;20119;-84
2024/03/18 07:16:32;;;;;;;0.20;0.20;;;;;;;13.16;47.94;101290.41;4932526;29;20175;-88
2024/03/18 07:18:58;;;;;;;0.20;0.20;;;;;;;13.08;46.83;101277.00;4931111;29;20466;-86
2024/03/18 07:21:23;;;;;;;0.20;0.20;;;;;;;13.17;46.82;101299.88;4926212;29;20149;-87
2024/03/18 07:23:49;;;;;;;0.20;0.20;;;;;;;13.17;46.59;101282.56;4940078;29;20070;-92
2024/03/18 07:26:15;;;;;;;0.20;0.20;;;;;;;13.20;45.42;101297.19;4931811;29;20052;-92
2024/03/18 07:28:41;;;;;;;0.20;0.20;;;;;;;13.14;45.83;101297.44;4947533;28;20059;-92
2024/03/18 07:31:08;;;;;;;0.20;0.20;;;;;;;13.23;44.73;101291.00;4944302;29;20706;-88
2024/03/18 07:33:34;;;;;;;0.20;0.20;;;;;;;13.01;45.69;101273.00;4929252;29;20114;-91
2024/03/18 07:36:00;;;;;;;0.20;0.20;;;;;;;13.13;45.05;101285.38;4930682;29;20035;-92
2024/03/18 07:38:25;;;;;;;0.20;0.20;;;;;;;13.25;44.75;101294.34;4947338;29;20043;-90
2024/03/18 07:40:53;;;;;;;0.20;0.20;;;;;;;13.14;44.35;101293.09;4938767;29;20039;-86
2024/03/18 07:43:19;;;;;;;0.20;0.20;;;;;;;13.05;43.56;101297.91;4955857;28;20118;-89
2024/03/18 07:45:45;;;;;;;0.20;0.20;;;;;;;13.07;43.96;101291.69;4946818;29;20034;-90
2024/03/18 07:48:11;;;;;;;0.20;0.20;;;;;;;13.17;44.03;101289.50;4950234;29;20050;-87
2024/03/18 07:50:39;;;;;;;0.20;0.20;;;;;;;13.11;43.90;101282.03;4938344;29;20075;-93
2024/03/18 07:53:05;;;;;;;0.20;0.20;;;;;;;13.23;44.18;101289.25;4955719;28;20462;-89
2024/03/18 07:55:31;;;;;;;0.20;0.20;;;;;;;13.24;45.14;101287.47;4918361;29;20062;-90
2024/03/18 07:57:56;;;;;;;0.20;0.20;;;;;;;13.07;44.42;101283.91;4925469;29;20149;-89
2024/03/18 08:00:22;;;;;;;0.20;0.20;;;;;;;13.05;43.96;101277.13;4923866;29;20054;-88
2024/03/18 08:02:48;;;;;;;0.20;0.20;;;;;;;13.10;44.78;101278.59;4967177;28;20499;-91
2024/03/18 08:05:13;;;;;;;0.20;0.20;;;;;;;13.15;44.64;101288.75;4958453;28;20058;-88
2024/03/18 08:07:39;;;;;;;0.20;0.20;;;;;;;13.05;44.08;101287.50;4927886;29;20494;-89
2024/03/18 08:10:05;;;;;;;0.20;0.20;;;;;;;13.11;43.80;101282.03;4950934;29;20059;-93
2024/03/18 08:12:30;;;;;;;0.20;0.20;;;;;;;12.93;44.30;101269.00;4933796;29;20043;-85
2024/03/18 08:14:56;;;;;;;0.20;0.20;;;;;;;13.06;44.67;101268.41;4930803;29;20095;-92
2024/03/18 08:17:23;;;;;;;0.20;0.20;;;;;;;13.02;43.86;101267.72;4906790;29;20035;-92
2024/03/18 08:19:48;;;;;;;0.20;0.20;;;;;;;12.93;43.74;101263.81;4949549;29;20036;-84
2024/03/18 08:22:16;;;;;;;0.20;0.20;;;;;;;12.96;44.53;101264.56;4922699;29;20035;-85
2024/03/18 08:24:42;;;;;;;0.20;0.20;;;;;;;12.72;43.96;101238.88;4924340;29;20047;-86
2024/03/18 08:27:09;;;;;;;0.20;0.20;;;;;;;12.95;43.73;101261.13;4932973;29;20648;-87
2024/03/18 08:29:35;;;;;;;0.20;0.20;;;;;;;12.92;43.83;101249.16;4933596;29;20024;-85
2024/03/18 08:32:01;;;;;;;0.20;0.20;;;;;;;12.91;43.35;101263.06;4934689;29;20454;-88
2024/03/18 08:34:26;;;;;;;0.20;0.20;;;;;;;13.03;43.94;101273.75;4932288;29;20426;-89
2024/03/18 08:36:52;;;;;;;0.20;0.20;;;;;;;13.03;44.22;101273.75;4933563;29;20031;-88
2024/03/18 08:39:18;;;;;;;0.20;0.20;;;;;;;13.08;43.66;101272.63;4932661;29;20102;-87
2024/03/18 08:41:45;;;;;;;0.20;0.20;;;;;;;13.07;44.23;101254.50;4917342;29;20030;-88
2024/03/18 08:44:10;;;;;;;0.20;0.20;;;;;;;13.13;43.80;101275.81;4933301;29;20042;-88
2024/03/18 08:46:36;;;;;;;0.20;0.20;;;;;;;13.02;44.08;101267.72;4933708;29;20405;-90
2024/03/18 08:49:02;;;;;;;0.20;0.20;;;;;;;12.91;44.61;101265.66;4922707;29;20054;-86
2024/03/18 08:51:28;;;;;;;0.20;0.20;;;;;;;13.00;44.08;101258.34;4952476;29;20027;-90
2024/03/18 08:53:53;;;;;;;0.20;0.20;;;;;;;13.00;44.39;101266.13;4955867;28;20051;-91
2024/03/18 08:56:21;;;;;;;0.20;0.20;;;;;;;12.95;43.63;101260.31;4937849;29;20031;-89
2024/03/18 08:58:47;;;;;;;0.20;0.20;;;;;;;12.83;44.64;101252.19;4938428;29;20032;-86
2024/03/18 09:01:13;;;;;;;0.20;0.20;;;;;;;13.01;44.15;101254.81;4937680;29;20059;-86
2024/03/18 09:03:39;;;;;;;0.30;0.30;;;;;;;13.06;44.42;101255.41;4928818;29;20048;-94
2024/03/18 09:06:05;;;;;;;0.20;0.20;;;;;;;12.97;44.42;101258.47;4914839;29;20533;-90
2024/03/18 09:08:30;;;;;;;0.20;0.20;;;;;;;12.91;46.14;101236.25;4922673;29;20035;-87
2024/03/18 09:10:56;;;;;;;0.20;0.20;;;;;;;12.92;45.53;101243.97;4932809;29;20024;-84
2024/03/18 09:13:22;;;;;;;0.20;0.20;;;;;;;12.88;45.39;101244.16;4933717;29;20042;-86
2024/03/18 09:15:49;;;;;;;0.20;0.20;;;;;;;12.73;46.32;101231.94;4932675;29;20067;-86
2024/03/18 09:18:14;;;;;;;0.20;0.20;;;;;;;12.71;46.44;101226.81;4917373;29;20036;-83
2024/03/18 09:20:40;;;;;;;0.20;0.20;;;;;;;12.86;46.38;101249.44;4925794;29;20153;-84
2024/03/18 09:23:10;;;;;;;0.20;0.20;;;;;;;12.81;46.34;101235.84;4951947;29;20054;-92
2024/03/18 09:25:35;;;;;;;0.20;0.20;;;;;;;12.85;46.04;101236.53;4936461;29;20059;-86
2024/03/18 09:28:02;;;;;;;0.20;0.20;;;;;;;13.03;46.70;101247.78;4930937;29;20067;-86
2024/03/18 09:30:28;;;;;;;0.20;0.20;;;;;;;13.03;47.32;101242.59;4897539;29;20471;-87
2024/03/18 09:32:54;;;;;;;0.20;0.20;;;;;;;13.13;47.41;101229.06;4927084;29;20501;-88
2024/03/18 09:35:20;;;;;;;0.20;0.20;;;;;;;13.18;47.64;101215.88;4966627;28;20695;-83
2024/03/18 09:37:46;;;;;;;0.22;0.22;;;;;;;13.30;47.32;101217.88;4931670;29;20067;-87
2024/03/18 09:40:13;;;;;;;0.20;0.20;;;;;;;13.38;47.57;101202.72;4951811;28;20046;-93
2024/03/18 09:42:38;;;;;;;0.20;0.20;;;;;;;13.61;47.63;101224.09;4950807;29;20036;-87
2024/03/18 09:45:08;;;;;;;0.20;0.20;;;;;;;13.68;48.25;101215.06;4919455;29;20070;-95
2024/03/18 09:47:34;;;;;;;0.20;0.20;;;;;;;13.82;47.88;101220.34;4932695;29;20107;-91
2024/03/18 09:49:59;;;;;;;0.20;0.20;;;;;;;13.92;47.55;101210.31;4933171;29;20118;-92
2024/03/18 09:52:27;;;;;;;0.20;0.20;;;;;;;13.93;47.73;101207.63;4910368;29;20032;-88
2024/03/18 09:54:52;;;;;;;0.20;0.20;;;;;;;13.89;46.63;101181.88;4898836;29;20035;-92
2024/03/18 09:57:26;;;;;;;0.20;0.20;;;;;;;14.18;46.97;101203.69;4930488;29;20495;-91
2024/03/18 09:59:53;;;;;;;0.20;0.20;;;;;;;14.42;45.97;101209.31;4902788;29;20043;-91
2024/03/18 10:02:19;;;;;;;0.20;0.20;;;;;;;14.44;45.60;101204.84;4933297;29;20035;-85
2024/03/18 10:04:45;;;;;;;0.20;0.20;;;;;;;14.48;45.98;101209.00;4913500;29;20036;-84
2024/03/18 10:07:17;;;;;;;0.20;0.20;;;;;;;14.67;44.93;101207.03;4948726;28;20269;-90
2024/03/18 10:09:47;;;;;;;;;;;;;;;14.79;45.85;101205.50;4931873;29;20038;-87
2024/03/18 10:12:14;;;;;;;0.20;0.20;;;;;;;14.92;46.34;101196.03;4928546;29;20033;-86
2024/03/18 10:14:40;;;;;;;0.20;0.20;;;;;;;15.17;45.00;101193.69;4900036;29;20030;-92
2024/03/18 10:17:06;;;;;;;0.20;0.20;;;;;;;15.46;45.68;101185.91;4912491;29;20122;-83
2024/03/18 10:19:32;;;;;;;0.20;0.20;;;;;;;15.74;43.51;101195.53;4924511;29;20043;-88
2024/03/18 10:21:57;;;;;;;0.20;0.20;;;;;;;16.00;41.45;101193.91;4932056;29;20043;-90
2024/03/18 10:24:23;;;;;;;0.20;0.20;;;;;;;15.98;40.67;101183.56;4932980;29;20067;-88
2024/03/18 10:26:50;;;;;;;0.20;0.20;;;;;;;16.18;40.21;101186.69;4938737;29;20042;-84
2024/03/18 10:29:16;;;;;;;0.20;0.20;;;;;;;16.17;40.92;101177.19;4939872;29;20114;-86
2024/03/18 10:31:42;;;;;;;0.20;0.20;;;;;;;16.11;40.33;101160.13;4931887;29;20030;-84
2024/03/18 10:34:08;;;;;;;0.20;0.20;;;;;;;16.21;41.21;101170.81;4931421;29;20038;-84
2024/03/18 10:36:37;;;;;;;0.20;0.20;;;;;;;16.06;41.89;101164.81;4929802;29;20115;-85
2024/03/18 10:39:09;;;;;;;0.20;0.20;;;;;;;15.92;40.88;101173.50;4929349;29;20035;-81
2024/03/18 10:41:38;;;;;;;0.20;0.20;;;;;;;16.06;41.32;101160.44;4932712;29;20038;-86
2024/03/18 10:44:19;;;;;;;0.20;0.20;;;;;;;16.16;41.25;101158.09;4931169;29;20562;-87
2024/03/18 10:46:44;;;;;;;0.20;0.20;;;;;;;16.28;41.90;101154.69;4931451;29;20062;-90
2024/03/18 10:49:20;;;;;;;0.20;0.20;;;;;;;16.12;40.90;101140.09;4928028;29;20127;-85
2024/03/18 10:51:46;;;;;;;0.20;0.20;;;;;;;16.15;41.18;101148.56;4916468;29;20055;-87
2024/03/18 10:54:15;;;;;;;0.20;0.20;;;;;;;16.10;41.66;101144.56;4949307;29;20031;-92
2024/03/18 10:56:45;;;;;;;0.20;0.20;;;;;;;16.16;40.87;101141.59;4953161;29;20051;-94
2024/03/18 10:59:20;;;;;;;0.20;0.20;;;;;;;16.01;41.52;101135.56;4954086;28;20059;-86
2024/03/18 11:01:46;;;;;;;0.20;0.20;;;;;;;16.05;42.63;101131.84;4932916;29;20046;-95
2024/03/18 11:04:21;;;;;;;0.20;0.20;;;;;;;16.22;42.60;101123.75;4932613;29;20422;-84
2024/03/18 11:06:48;;;;;;;0.20;0.20;;;;;;;16.21;42.12;101127.28;4933861;29;20077;-84
2024/03/18 11:09:16;;;;;;;0.20;0.20;;;;;;;16.40;42.26;101113.03;4923028;29;20047;-93
2024/03/18 11:11:42;;;;;;;0.20;0.20;;;;;;;16.42;42.75;101096.34;4959312;28;20042;-86
2024/03/18 11:14:11;;;;;;;0.20;0.20;;;;;;;16.70;42.07;101100.59;4931716;29;20035;-91
2024/03/18 11:16:46;;;;;;;0.20;0.20;;;;;;;16.93;41.51;101096.44;4951084;28;20028;-88
2024/03/18 11:19:16;;;;;;;0.20;0.20;;;;;;;16.84;41.32;101095.28;4951482;29;20055;-83
2024/03/18 11:21:42;;;;;;;0.20;0.20;;;;;;;16.83;41.63;101080.56;4934297;29;20027;-82
2024/03/18 11:24:07;;;;;;;0.20;0.20;;;;;;;16.84;41.13;101068.31;4934321;29;20406;-81
2024/03/18 11:26:35;;;;;;;0.15;0.15;;;;;;;17.10;40.21;101074.38;4934773;29;20031;-86
2024/03/18 11:29:08;;;;;;;0.20;0.20;;;;;;;16.98;39.77;101070.81;4934484;29;20046;-86
2024/03/18 11:31:37;;;;;;;0.20;0.20;;;;;;;17.16;40.87;101068.72;4934546;29;20032;-86